createdAt,value
2018-09-03T00:02:04.905Z,15.55
2018-09-03T00:04:33.428Z,15.53
2018-09-03T00:07:01.901Z,15.52
2018-09-03T00:09:35.840Z,15.53
2018-09-03T00:12:04.643Z,15.51
2018-09-03T00:14:33.073Z,15.46
2018-09-03T00:17:01.697Z,15.44
2018-09-03T00:19:30.137Z,15.41
2018-09-03T00:21:58.937Z,15.40
2018-09-03T00:24:27.390Z,15.37
2018-09-03T00:26:56.137Z,15.36
2018-09-03T00:29:24.634Z,15.33
2018-09-03T00:31:58.566Z,15.29
2018-09-03T00:34:32.206Z,15.25
2018-09-03T00:37:06.081Z,15.22
2018-09-03T00:39:39.905Z,15.15
2018-09-03T00:42:13.762Z,15.12
2018-09-03T00:44:47.620Z,15.11
2018-09-03T00:47:16.513Z,15.11
2018-09-03T00:49:45.011Z,15.10
2018-09-03T00:52:13.572Z,15.08
2018-09-03T00:54:42.145Z,15.06
2018-09-03T00:57:10.596Z,15.06
2018-09-03T00:59:39.033Z,15.04
2018-09-03T01:02:07.638Z,15.04
2018-09-03T01:04:36.072Z,15.03
2018-09-03T01:07:04.564Z,15.02
2018-09-03T01:09:33.609Z,15.01
2018-09-03T01:12:02.043Z,14.99
2018-09-03T01:14:30.561Z,14.99
2018-09-03T01:16:59.353Z,15.00
2018-09-03T01:19:28.317Z,15.03
2018-09-03T01:21:56.777Z,15.05
2018-09-03T01:24:25.325Z,15.04
2018-09-03T01:26:53.797Z,15.02
2018-09-03T01:29:22.248Z,15.04
2018-09-03T01:31:55.017Z,15.05
2018-09-03T01:34:24.629Z,15.09
2018-09-03T01:36:53.408Z,15.08
2018-09-03T01:39:21.988Z,15.06
2018-09-03T01:41:50.541Z,15.04
2018-09-03T01:44:19.081Z,15.03
2018-09-03T01:46:48.121Z,15.01
2018-09-03T01:49:16.629Z,14.98
2018-09-03T01:51:45.238Z,14.93
2018-09-03T01:54:13.832Z,14.86
2018-09-03T01:56:42.261Z,14.79
2018-09-03T01:59:10.788Z,14.78
2018-09-03T02:01:39.225Z,14.76
2018-09-03T02:04:07.750Z,14.74
2018-09-03T02:06:36.517Z,14.71
2018-09-03T02:09:09.129Z,14.68
2018-09-03T02:11:37.925Z,14.67
2018-09-03T02:14:06.642Z,14.69
2018-09-03T02:16:36.194Z,14.72
2018-09-03T02:19:05.085Z,14.72
2018-09-03T02:21:33.535Z,14.69
2018-09-03T02:24:02.100Z,14.67
2018-09-03T02:26:30.839Z,14.63
2018-09-03T02:28:59.398Z,14.60
2018-09-03T02:31:27.968Z,14.62
2018-09-03T02:33:56.570Z,14.66
2018-09-03T02:36:25.028Z,14.63
2018-09-03T02:38:53.477Z,14.59
2018-09-03T02:41:21.997Z,14.59
2018-09-03T02:43:50.577Z,14.58
2018-09-03T02:46:19.144Z,14.52
2018-09-03T02:48:48.644Z,14.45
2018-09-03T02:51:17.099Z,14.38
2018-09-03T02:53:45.608Z,14.34
2018-09-03T02:56:14.113Z,14.36
2018-09-03T02:58:42.541Z,14.34
2018-09-03T03:01:11.102Z,14.33
2018-09-03T03:03:39.701Z,14.27
2018-09-03T03:06:08.140Z,14.22
2018-09-03T03:08:36.739Z,14.21
2018-09-03T03:11:05.545Z,14.18
2018-09-03T03:13:34.001Z,14.18
2018-09-03T03:16:02.617Z,14.21
2018-09-03T03:18:31.109Z,14.22
2018-09-03T03:20:59.565Z,14.15
2018-09-03T03:23:28.462Z,14.11
2018-09-03T03:25:56.980Z,14.05
2018-09-03T03:28:25.408Z,14.07
2018-09-03T03:30:53.896Z,14.04
2018-09-03T03:33:22.870Z,14.01
2018-09-03T03:35:51.377Z,13.97
2018-09-03T03:38:19.849Z,13.97
2018-09-03T03:40:48.386Z,13.92
2018-09-03T03:43:16.929Z,13.97
2018-09-03T03:45:45.553Z,13.98
2018-09-03T03:48:14.078Z,14.00
2018-09-03T03:50:42.701Z,14.03
2018-09-03T03:53:11.181Z,14.03
2018-09-03T03:55:39.630Z,13.97
2018-09-03T03:58:08.064Z,13.94
2018-09-03T04:00:36.523Z,13.98
2018-09-03T04:03:05.039Z,14.00
2018-09-03T04:05:33.477Z,13.96
2018-09-03T04:08:02.264Z,13.90
2018-09-03T04:10:30.999Z,13.85
2018-09-03T04:13:03.605Z,13.85
2018-09-03T04:15:32.130Z,13.84
2018-09-03T04:18:00.782Z,13.82
2018-09-03T04:20:29.317Z,13.85
2018-09-03T04:22:58.127Z,13.90
2018-09-03T04:25:26.928Z,13.89
2018-09-03T04:27:56.159Z,13.92
2018-09-03T04:30:24.757Z,13.97
2018-09-03T04:32:53.909Z,14.05
2018-09-03T04:35:22.382Z,14.08
2018-09-03T04:37:51.146Z,14.06
2018-09-03T04:40:19.674Z,14.04
2018-09-03T04:42:48.128Z,14.04
2018-09-03T04:45:16.636Z,14.08
2018-09-03T04:47:45.480Z,14.13
2018-09-03T04:50:13.962Z,14.15
2018-09-03T04:52:42.707Z,14.14
2018-09-03T04:55:11.184Z,14.17
2018-09-03T04:57:39.932Z,14.20
2018-09-03T05:00:08.402Z,14.27
2018-09-03T05:02:36.841Z,14.35
2018-09-03T05:05:05.494Z,14.43
2018-09-03T05:07:34.161Z,14.42
2018-09-03T05:10:02.604Z,14.47
2018-09-03T05:12:31.113Z,14.50
2018-09-03T05:14:59.889Z,14.56
2018-09-03T05:17:28.328Z,14.60
2018-09-03T05:19:56.809Z,14.65
2018-09-03T05:22:25.656Z,14.71
2018-09-03T05:24:54.085Z,14.75
2018-09-03T05:27:22.543Z,14.80
2018-09-03T05:29:51.414Z,14.83
2018-09-03T05:32:19.869Z,14.92
2018-09-03T05:34:48.433Z,14.97
2018-09-03T05:37:16.971Z,15.05
2018-09-03T05:39:45.410Z,15.11
2018-09-03T05:42:13.864Z,15.18
2018-09-03T05:44:42.313Z,15.28
2018-09-03T05:47:10.757Z,15.33
2018-09-03T05:49:39.727Z,15.39
2018-09-03T05:52:08.427Z,15.46
2018-09-03T05:54:36.957Z,15.55
2018-09-03T05:57:05.572Z,15.63
2018-09-03T05:59:34.186Z,15.68
2018-09-03T06:02:02.726Z,15.77
2018-09-03T06:04:31.729Z,15.84
2018-09-03T06:07:00.502Z,15.94
2018-09-03T06:09:29.090Z,16.05
2018-09-03T06:11:57.629Z,16.17
2018-09-03T06:14:27.525Z,16.27
2018-09-03T06:16:56.011Z,16.39
2018-09-03T06:19:24.516Z,16.47
2018-09-03T06:21:53.287Z,16.60
2018-09-03T06:24:21.767Z,16.68
2018-09-03T06:26:50.229Z,16.80
2018-09-03T06:29:19.025Z,16.89
2018-09-03T06:31:53.905Z,16.97
2018-09-03T06:34:22.734Z,17.07
2018-09-03T06:36:51.703Z,17.16
2018-09-03T06:39:20.353Z,17.28
2018-09-03T06:41:49.198Z,17.38
2018-09-03T06:44:17.807Z,17.48
2018-09-03T06:46:46.269Z,17.62
2018-09-03T06:49:15.154Z,17.74
2018-09-03T06:51:43.745Z,17.90
2018-09-03T06:54:12.257Z,18.04
2018-09-03T06:56:41.310Z,18.21
2018-09-03T06:59:09.752Z,18.46
2018-09-03T07:01:38.915Z,19.00
2018-09-03T07:04:07.477Z,19.75
2018-09-03T07:06:35.970Z,20.56
2018-09-03T07:09:06.694Z,21.31
2018-09-03T07:11:35.473Z,22.03
2018-09-03T07:14:03.958Z,22.74
2018-09-03T07:16:32.469Z,23.35
2018-09-03T07:19:01.277Z,23.92
2018-09-03T07:21:29.726Z,24.39
2018-09-03T07:23:58.229Z,24.80
2018-09-03T07:26:26.758Z,25.17
2018-09-03T07:28:55.299Z,25.19
2018-09-03T07:31:23.716Z,25.51
2018-09-03T07:33:52.236Z,25.73
2018-09-03T07:36:21.366Z,25.99
2018-09-03T07:38:49.846Z,26.29
2018-09-03T07:41:18.872Z,26.60
2018-09-03T07:43:47.294Z,26.82
2018-09-03T07:46:16.296Z,27.23
2018-09-03T07:48:45.150Z,27.30
2018-09-03T07:51:13.633Z,27.44
2018-09-03T07:53:42.846Z,27.73
2018-09-03T07:56:11.366Z,27.93
2018-09-03T07:58:40.212Z,28.16
2018-09-03T08:01:08.698Z,28.20
2018-09-03T08:03:37.660Z,28.36
2018-09-03T08:06:06.397Z,28.55
2018-09-03T08:08:34.959Z,28.75
2018-09-03T08:11:03.623Z,28.93
2018-09-03T08:13:37.193Z,29.08
2018-09-03T08:16:06.217Z,29.27
2018-09-03T08:18:34.649Z,29.47
2018-09-03T08:21:03.425Z,29.63
2018-09-03T08:23:32.366Z,29.82
2018-09-03T08:26:00.813Z,29.93
2018-09-03T08:28:29.309Z,30.04
2018-09-03T08:30:58.120Z,30.06
2018-09-03T08:33:26.554Z,30.16
2018-09-03T08:35:55.100Z,30.30
2018-09-03T08:38:23.850Z,30.71
2018-09-03T08:40:52.992Z,30.92
2018-09-03T08:43:21.643Z,31.00
2018-09-03T08:45:50.177Z,29.85
2018-09-03T08:48:18.606Z,31.20
2018-09-03T08:50:47.215Z,31.20
2018-09-03T08:53:15.989Z,30.95
2018-09-03T08:55:45.066Z,30.16
2018-09-03T08:58:13.534Z,29.16
2018-09-03T09:00:42.511Z,28.30
2018-09-03T09:03:17.674Z,27.56
2018-09-03T09:05:46.365Z,27.53
2018-09-03T09:08:15.013Z,28.05
2018-09-03T09:10:43.486Z,28.68
2018-09-03T09:13:12.202Z,29.29
2018-09-03T09:15:40.865Z,29.73
2018-09-03T09:18:09.325Z,29.99
2018-09-03T09:20:37.787Z,29.93
2018-09-03T09:23:06.225Z,30.23
2018-09-03T09:25:34.754Z,30.57
2018-09-03T09:28:03.616Z,30.96
2018-09-03T09:30:32.041Z,31.33
2018-09-03T09:33:00.702Z,31.56
2018-09-03T09:35:29.205Z,31.83
2018-09-03T09:37:57.663Z,32.00
2018-09-03T09:40:26.234Z,32.15
2018-09-03T09:42:55.097Z,32.25
2018-09-03T09:45:23.535Z,32.31
2018-09-03T09:47:52.106Z,32.38
2018-09-03T09:50:20.884Z,32.46
2018-09-03T09:52:49.662Z,32.54
2018-09-03T09:55:18.302Z,32.71
2018-09-03T09:57:47.537Z,32.72
2018-09-03T10:00:21.469Z,32.59
2018-09-03T10:02:50.051Z,32.75
2018-09-03T10:05:18.527Z,32.95
2018-09-03T10:07:47.469Z,33.06
2018-09-03T10:10:16.453Z,33.15
2018-09-03T10:12:44.934Z,33.26
2018-09-03T10:15:13.801Z,33.29
2018-09-03T10:17:42.554Z,33.06
2018-09-03T10:20:10.978Z,33.02
2018-09-03T10:22:39.561Z,33.17
2018-09-03T10:25:08.088Z,33.21
2018-09-03T10:27:36.549Z,33.30
2018-09-03T10:30:05.175Z,33.45
2018-09-03T10:32:33.830Z,33.63
2018-09-03T10:35:02.270Z,33.74
2018-09-03T10:37:30.867Z,33.87
2018-09-03T10:40:01.068Z,33.73
2018-09-03T10:42:30.429Z,33.45
2018-09-03T10:44:58.877Z,33.24
2018-09-03T10:47:27.733Z,33.26
2018-09-03T10:49:56.165Z,33.22
2018-09-03T10:52:24.757Z,33.22
2018-09-03T10:54:53.325Z,32.95
2018-09-03T10:57:22.656Z,32.31
2018-09-03T10:59:51.251Z,31.79
2018-09-03T11:02:20.162Z,31.62
2018-09-03T11:04:50.001Z,31.84
2018-09-03T11:07:18.466Z,31.93
2018-09-03T11:09:47.195Z,31.99
2018-09-03T11:12:16.061Z,32.30
2018-09-03T11:14:44.523Z,32.42
2018-09-03T11:17:13.174Z,31.81
2018-09-03T11:19:45.895Z,32.25
2018-09-03T11:22:15.136Z,32.34
2018-09-03T11:24:43.595Z,32.01
2018-09-03T11:27:12.067Z,31.30
2018-09-03T11:29:40.574Z,31.44
2018-09-03T11:32:15.505Z,31.72
2018-09-03T11:34:44.104Z,32.22
2018-09-03T11:37:12.645Z,32.31
2018-09-03T11:39:41.416Z,32.34
2018-09-03T11:42:10.145Z,31.49
2018-09-03T11:44:38.614Z,31.34
2018-09-03T11:47:07.196Z,31.39
2018-09-03T11:49:35.718Z,31.48
2018-09-03T11:52:04.183Z,31.40
2018-09-03T11:54:32.764Z,31.00
2018-09-03T11:57:01.425Z,30.52
2018-09-03T11:59:29.845Z,29.89
2018-09-03T12:01:58.613Z,29.85
2018-09-03T12:04:27.100Z,30.30
2018-09-03T12:06:55.553Z,30.27
2018-09-03T12:09:24.165Z,30.04
2018-09-03T12:11:52.679Z,29.87
2018-09-03T12:14:26.760Z,29.67
2018-09-03T12:16:56.044Z,29.78
2018-09-03T12:19:24.989Z,29.70
2018-09-03T12:21:53.533Z,29.77
2018-09-03T12:24:22.075Z,29.86
2018-09-03T12:26:50.570Z,29.75
2018-09-03T12:29:19.137Z,29.37
2018-09-03T12:31:47.736Z,29.09
2018-09-03T12:34:16.201Z,29.00
2018-09-03T12:36:44.661Z,28.85
2018-09-03T12:39:13.293Z,28.59
2018-09-03T12:41:41.746Z,28.26
2018-09-03T12:44:10.807Z,27.93
2018-09-03T12:46:39.439Z,27.80
2018-09-03T12:49:07.886Z,27.75
2018-09-03T12:51:36.453Z,27.64
2018-09-03T12:54:08.082Z,27.42
2018-09-03T12:56:36.633Z,27.34
2018-09-03T12:59:05.125Z,27.27
2018-09-03T13:01:33.698Z,27.15
2018-09-03T13:04:02.513Z,26.39
2018-09-03T13:06:30.951Z,26.95
2018-09-03T13:08:59.419Z,26.95
2018-09-03T13:11:28.157Z,26.99
2018-09-03T13:13:56.624Z,27.23
2018-09-03T13:16:25.990Z,27.91
2018-09-03T13:18:54.897Z,27.83
2018-09-03T13:21:23.318Z,27.58
2018-09-03T13:23:51.759Z,27.34
2018-09-03T13:26:20.353Z,27.19
2018-09-03T13:28:48.802Z,27.08
2018-09-03T13:31:17.251Z,26.93
2018-09-03T13:33:52.662Z,26.81
2018-09-03T13:36:27.454Z,26.70
2018-09-03T13:38:55.938Z,26.63
2018-09-03T13:41:24.428Z,26.57
2018-09-03T13:43:52.894Z,26.51
2018-09-03T13:46:21.365Z,26.44
2018-09-03T13:48:49.780Z,26.39
2018-09-03T13:51:18.518Z,26.27
2018-09-03T13:53:47.265Z,26.12
2018-09-03T13:56:15.711Z,26.12
2018-09-03T13:58:44.153Z,26.17
2018-09-03T14:01:12.762Z,26.18
2018-09-03T14:03:41.582Z,26.22
2018-09-03T14:06:10.210Z,26.27
2018-09-03T14:08:39.021Z,26.33
2018-09-03T14:11:07.469Z,27.04
2018-09-03T14:13:35.921Z,28.78
2018-09-03T14:16:04.420Z,30.33
2018-09-03T14:18:32.988Z,31.69
2018-09-03T14:21:01.467Z,32.80
2018-09-03T14:23:29.986Z,33.60
2018-09-03T14:25:58.422Z,34.26
2018-09-03T14:28:26.892Z,34.55
2018-09-03T14:30:55.583Z,33.81
2018-09-03T14:33:24.697Z,33.67
2018-09-03T14:35:53.137Z,33.63
2018-09-03T14:38:21.613Z,33.52
2018-09-03T14:40:50.065Z,32.99
2018-09-03T14:43:18.495Z,31.63
2018-09-03T14:45:46.963Z,30.73
2018-09-03T14:48:15.426Z,30.19
2018-09-03T14:50:43.865Z,29.33
2018-09-03T14:53:19.015Z,28.78
2018-09-03T14:55:47.682Z,28.33
2018-09-03T14:58:16.106Z,27.88
2018-09-03T15:00:44.565Z,27.37
2018-09-03T15:03:13.000Z,27.01
2018-09-03T15:05:41.517Z,26.76
2018-09-03T15:08:10.276Z,26.72
2018-09-03T15:10:38.853Z,26.71
2018-09-03T15:13:07.304Z,26.51
2018-09-03T15:15:35.778Z,26.37
2018-09-03T15:18:04.205Z,26.24
2018-09-03T15:20:33.161Z,26.46
2018-09-03T15:23:01.642Z,27.39
2018-09-03T15:25:30.073Z,28.16
2018-09-03T15:27:59.679Z,28.52
2018-09-03T15:30:28.129Z,28.16
2018-09-03T15:32:56.714Z,27.58
2018-09-03T15:35:26.164Z,26.87
2018-09-03T15:37:55.548Z,26.57
2018-09-03T15:40:24.200Z,26.12
2018-09-03T15:42:52.648Z,25.60
2018-09-03T15:45:21.129Z,25.21
2018-09-03T15:47:49.603Z,24.93
2018-09-03T15:50:18.057Z,24.72
2018-09-03T15:52:46.545Z,24.72
2018-09-03T15:55:15.030Z,24.98
2018-09-03T15:57:43.496Z,25.40
2018-09-03T16:00:12.091Z,25.70
2018-09-03T16:02:40.867Z,25.73
2018-09-03T16:05:09.353Z,25.52
2018-09-03T16:07:37.840Z,25.54
2018-09-03T16:10:06.449Z,25.71
2018-09-03T16:12:34.910Z,25.98
2018-09-03T16:15:03.534Z,26.08
2018-09-03T16:17:32.005Z,26.07
2018-09-03T16:20:00.483Z,26.10
2018-09-03T16:22:29.367Z,26.53
2018-09-03T16:25:04.053Z,26.96
2018-09-03T16:27:32.623Z,27.38
2018-09-03T16:30:01.225Z,27.63
2018-09-03T16:32:29.699Z,27.66
2018-09-03T16:34:58.198Z,27.57
2018-09-03T16:37:26.666Z,27.19
2018-09-03T16:39:55.177Z,26.62
2018-09-03T16:42:23.848Z,26.01
2018-09-03T16:44:52.296Z,25.46
2018-09-03T16:47:20.770Z,24.95
2018-09-03T16:49:49.282Z,24.55
2018-09-03T16:52:17.758Z,24.18
2018-09-03T16:54:46.228Z,23.89
2018-09-03T16:57:14.720Z,23.68
2018-09-03T16:59:43.177Z,23.51
2018-09-03T17:02:11.658Z,23.28
2018-09-03T17:04:40.255Z,23.01
2018-09-03T17:07:08.817Z,22.84
2018-09-03T17:09:37.667Z,22.64
2018-09-03T17:12:06.681Z,22.41
2018-09-03T17:14:35.182Z,22.21
2018-09-03T17:17:03.617Z,22.07
2018-09-03T17:19:32.114Z,21.93
2018-09-03T17:22:00.650Z,21.80
2018-09-03T17:24:29.577Z,21.67
2018-09-03T17:27:02.254Z,21.58
2018-09-03T17:29:30.824Z,21.49
2018-09-03T17:31:59.337Z,21.42
2018-09-03T17:34:28.672Z,21.29
2018-09-03T17:36:57.107Z,21.22
2018-09-03T17:39:25.574Z,21.12
2018-09-03T17:41:54.157Z,21.05
2018-09-03T17:44:22.615Z,20.96
2018-09-03T17:46:51.167Z,20.90
2018-09-03T17:49:19.669Z,20.85
2018-09-03T17:51:48.218Z,20.77
2018-09-03T17:54:16.676Z,20.69
2018-09-03T17:56:45.179Z,20.61
2018-09-03T17:59:13.656Z,20.55
2018-09-03T18:01:42.118Z,20.50
2018-09-03T18:04:11.032Z,20.41
2018-09-03T18:06:39.609Z,20.34
2018-09-03T18:09:08.257Z,20.28
2018-09-03T18:11:36.753Z,20.22
2018-09-03T18:14:05.354Z,20.17
2018-09-03T18:16:33.998Z,20.12
2018-09-03T18:19:02.574Z,20.07
2018-09-03T18:21:31.014Z,20.02
2018-09-03T18:23:59.458Z,19.97
2018-09-03T18:26:28.043Z,19.89
2018-09-03T18:28:56.722Z,19.87
2018-09-03T18:31:25.164Z,19.82
2018-09-03T18:33:53.634Z,19.76
2018-09-03T18:36:22.121Z,19.70
2018-09-03T18:38:56.977Z,19.63
2018-09-03T18:41:25.495Z,19.55
2018-09-03T18:43:54.353Z,19.46
2018-09-03T18:46:22.837Z,19.39
2018-09-03T18:48:51.791Z,19.36
2018-09-03T18:51:20.314Z,19.31
2018-09-03T18:53:48.857Z,19.26
2018-09-03T18:56:17.330Z,19.23
2018-09-03T18:58:45.770Z,19.21
2018-09-03T19:01:14.385Z,19.17
2018-09-03T19:03:42.837Z,19.14
2018-09-03T19:06:11.404Z,19.13
2018-09-03T19:08:39.869Z,19.09
2018-09-03T19:11:08.433Z,19.04
2018-09-03T19:13:36.882Z,19.01
2018-09-03T19:16:05.625Z,18.96
2018-09-03T19:18:34.115Z,18.92
2018-09-03T19:21:02.542Z,18.90
2018-09-03T19:23:31.202Z,18.87
2018-09-03T19:25:59.686Z,18.85
2018-09-03T19:28:28.840Z,18.84
2018-09-03T19:30:57.386Z,18.82
2018-09-03T19:33:26.396Z,18.79
2018-09-03T19:35:54.965Z,18.75
2018-09-03T19:38:23.565Z,18.71
2018-09-03T19:40:52.029Z,18.67
2018-09-03T19:43:20.486Z,18.61
2018-09-03T19:45:48.970Z,18.55
2018-09-03T19:48:17.409Z,18.50
2018-09-03T19:50:45.886Z,18.46
2018-09-03T19:53:14.368Z,18.43
2018-09-03T19:55:42.949Z,18.41
2018-09-03T19:58:11.409Z,18.35
2018-09-03T20:00:39.888Z,18.30
2018-09-03T20:03:08.339Z,18.25
2018-09-03T20:05:36.855Z,18.25
2018-09-03T20:08:05.430Z,18.23
2018-09-03T20:10:33.931Z,18.18
2018-09-03T20:13:09.096Z,18.12
2018-09-03T20:15:37.906Z,18.05
2018-09-03T20:18:06.587Z,18.00
2018-09-03T20:20:35.194Z,17.95
2018-09-03T20:23:03.687Z,17.95
2018-09-03T20:25:32.164Z,17.93
2018-09-03T20:28:00.676Z,17.88
2018-09-03T20:30:29.277Z,17.83
2018-09-03T20:32:58.400Z,17.81
2018-09-03T20:35:26.886Z,17.79
2018-09-03T20:37:55.356Z,17.77
2018-09-03T20:40:23.859Z,17.69
2018-09-03T20:42:52.826Z,17.61
2018-09-03T20:45:21.355Z,17.58
2018-09-03T20:47:49.877Z,17.58
2018-09-03T20:50:18.517Z,17.54
2018-09-03T20:52:46.962Z,17.43
2018-09-03T20:55:15.470Z,17.33
2018-09-03T20:57:43.954Z,17.30
2018-09-03T21:00:12.431Z,17.29
2018-09-03T21:02:41.114Z,17.30
2018-09-03T21:05:09.951Z,17.25
2018-09-03T21:07:38.447Z,17.16
2018-09-03T21:10:07.253Z,17.08
2018-09-03T21:12:36.050Z,17.10
2018-09-03T21:15:04.543Z,17.09
2018-09-03T21:17:33.117Z,17.06
2018-09-03T21:20:01.785Z,17.08
2018-09-03T21:22:30.250Z,17.01
2018-09-03T21:24:59.720Z,16.96
2018-09-03T21:27:28.463Z,16.81
2018-09-03T21:29:57.009Z,16.91
2018-09-03T21:32:25.549Z,16.91
2018-09-03T21:34:54.133Z,16.91
2018-09-03T21:37:22.569Z,16.86
2018-09-03T21:39:51.044Z,16.80
2018-09-03T21:42:19.509Z,16.71
2018-09-03T21:44:48.003Z,16.62
2018-09-03T21:47:16.513Z,16.52
2018-09-03T21:49:44.989Z,16.48
2018-09-03T21:52:13.478Z,16.54
2018-09-03T21:54:42.202Z,16.58
2018-09-03T21:57:10.845Z,16.51
2018-09-03T21:59:39.421Z,16.40
2018-09-03T22:02:09.634Z,16.33
2018-09-03T22:04:39.722Z,16.37
2018-09-03T22:07:08.621Z,16.42
2018-09-03T22:09:37.061Z,16.40
2018-09-03T22:12:06.056Z,16.35
2018-09-03T22:14:34.513Z,16.36
2018-09-03T22:17:02.985Z,16.34
2018-09-03T22:19:31.787Z,16.27
2018-09-03T22:22:01.274Z,16.24
2018-09-03T22:24:29.812Z,16.24
2018-09-03T22:26:58.391Z,16.23
2018-09-03T22:29:26.853Z,16.21
2018-09-03T22:31:55.417Z,16.15
2018-09-03T22:34:24.793Z,16.05
2018-09-03T22:36:53.289Z,15.96
2018-09-03T22:39:21.788Z,15.88
2018-09-03T22:41:50.381Z,15.83
2018-09-03T22:44:18.853Z,15.79
2018-09-03T22:46:47.276Z,15.80
2018-09-03T22:49:15.733Z,15.80
2018-09-03T22:51:44.355Z,15.77
2018-09-03T22:54:12.824Z,15.80
2018-09-03T22:56:41.287Z,15.85
2018-09-03T22:59:09.741Z,15.83
2018-09-03T23:01:38.182Z,15.78
2018-09-03T23:04:06.645Z,15.77
2018-09-03T23:06:35.070Z,15.75
2018-09-03T23:09:04.281Z,15.70
2018-09-03T23:11:32.781Z,15.62
2018-09-03T23:14:01.210Z,15.55
2018-09-03T23:16:29.649Z,15.51
2018-09-03T23:18:58.127Z,15.50
2018-09-03T23:21:26.785Z,15.46
2018-09-03T23:23:55.621Z,15.47
2018-09-03T23:26:24.123Z,15.51
2018-09-03T23:28:52.568Z,15.55
2018-09-03T23:31:21.046Z,15.56
2018-09-03T23:33:49.572Z,15.50
2018-09-03T23:36:18.010Z,15.41
2018-09-03T23:38:46.441Z,15.32
2018-09-03T23:41:15.018Z,15.23
2018-09-03T23:43:43.553Z,15.17
2018-09-03T23:46:11.985Z,15.14
2018-09-03T23:48:40.582Z,15.14
2018-09-03T23:51:09.060Z,15.11
2018-09-03T23:53:37.502Z,15.06
2018-09-03T23:56:05.974Z,15.01
2018-09-03T23:58:34.425Z,14.99
